createdAt,value
2022-09-30T00:02:12.287Z,5.33
2022-09-30T00:04:33.799Z,4.00
2022-09-30T00:06:55.342Z,4.03
2022-09-30T00:09:16.939Z,2.70
2022-09-30T00:11:40.143Z,3.97
2022-09-30T00:14:02.431Z,4.93
2022-09-30T00:16:25.661Z,5.43
2022-09-30T00:18:47.397Z,5.00
2022-09-30T00:21:09.933Z,4.47
2022-09-30T00:23:31.478Z,6.47
2022-09-30T00:25:58.860Z,4.57
2022-09-30T00:28:20.451Z,3.50
2022-09-30T00:30:43.116Z,6.07
2022-09-30T00:33:04.559Z,6.43
2022-09-30T00:35:26.046Z,2.70
2022-09-30T00:37:47.663Z,5.17
2022-09-30T00:40:11.627Z,4.30
2022-09-30T00:42:33.073Z,3.00
2022-09-30T00:45:05.916Z,6.60
2022-09-30T00:47:36.553Z,3.70
2022-09-30T00:50:01.778Z,3.10
2022-09-30T00:52:23.841Z,3.87
2022-09-30T00:54:45.773Z,3.57
2022-09-30T00:57:08.759Z,5.87
2022-09-30T00:59:34.928Z,2.80
2022-09-30T01:01:56.572Z,3.13
2022-09-30T01:04:22.362Z,4.67
2022-09-30T01:06:44.441Z,3.33
2022-09-30T01:09:06.302Z,3.23
2022-09-30T01:11:28.978Z,3.73
2022-09-30T01:13:53.796Z,2.80
2022-09-30T01:16:24.402Z,2.80
2022-09-30T01:19:01.858Z,3.67
2022-09-30T01:21:47.991Z,3.60
2022-09-30T01:24:34.469Z,5.00
2022-09-30T01:27:04.651Z,4.70
2022-09-30T01:29:44.313Z,3.43
2022-09-30T01:32:39.590Z,2.90
2022-09-30T01:35:22.256Z,4.30
2022-09-30T01:38:05.676Z,3.10
2022-09-30T01:40:40.724Z,4.37
2022-09-30T01:43:12.888Z,2.63
2022-09-30T01:45:42.828Z,2.60
2022-09-30T01:48:28.633Z,4.33
2022-09-30T01:50:50.048Z,5.40
2022-09-30T01:53:34.972Z,3.50
2022-09-30T01:56:18.655Z,4.67
2022-09-30T01:58:47.563Z,3.53
2022-09-30T02:01:18.206Z,4.50
2022-09-30T02:03:45.924Z,5.93
2022-09-30T02:06:14.219Z,3.37
2022-09-30T02:08:44.140Z,5.83
2022-09-30T02:11:18.896Z,4.07
2022-09-30T02:13:49.799Z,3.47
2022-09-30T02:16:16.324Z,5.93
2022-09-30T02:18:42.249Z,3.07
2022-09-30T02:21:07.425Z,4.60
2022-09-30T02:23:33.092Z,5.00
2022-09-30T02:26:18.147Z,7.00
2022-09-30T02:28:44.224Z,2.83
2022-09-30T02:31:08.556Z,3.07
2022-09-30T02:33:35.324Z,3.83
2022-09-30T02:36:06.002Z,6.17
2022-09-30T02:38:37.496Z,5.87
2022-09-30T02:41:06.627Z,9.57
2022-09-30T02:43:29.404Z,14.00
2022-09-30T02:46:00.143Z,8.73
2022-09-30T02:48:31.971Z,8.30
2022-09-30T02:51:03.999Z,6.77
2022-09-30T02:53:43.572Z,4.90
2022-09-30T02:56:26.423Z,5.73
2022-09-30T02:58:51.423Z,5.43
2022-09-30T03:01:15.391Z,5.37
2022-09-30T03:03:48.473Z,8.57
2022-09-30T03:06:10.924Z,5.50
2022-09-30T03:08:32.564Z,5.13
2022-09-30T03:10:54.143Z,7.43
2022-09-30T03:13:21.792Z,8.63
2022-09-30T03:16:18.912Z,11.70
2022-09-30T03:19:25.334Z,15.20
2022-09-30T03:22:11.537Z,12.77
2022-09-30T03:24:59.463Z,8.10
2022-09-30T03:27:43.070Z,8.10
2022-09-30T03:30:13.708Z,7.33
2022-09-30T03:32:44.595Z,5.50
2022-09-30T03:35:21.368Z,4.30
2022-09-30T03:38:07.344Z,4.23
2022-09-30T03:40:41.564Z,5.60
2022-09-30T03:43:32.688Z,4.83
2022-09-30T03:46:06.956Z,5.67
2022-09-30T03:48:30.444Z,8.00
2022-09-30T03:50:52.969Z,7.70
2022-09-30T03:53:14.623Z,6.80
2022-09-30T03:55:44.915Z,5.53
2022-09-30T03:58:07.577Z,3.97
2022-09-30T04:00:29.271Z,4.03
2022-09-30T04:02:55.797Z,4.17
2022-09-30T04:05:19.151Z,5.03
2022-09-30T04:07:40.703Z,5.30
2022-09-30T04:10:02.408Z,5.57
2022-09-30T04:12:23.875Z,4.20
2022-09-30T04:14:45.348Z,3.77
2022-09-30T04:17:07.232Z,4.57
2022-09-30T04:19:28.857Z,3.70
2022-09-30T04:21:53.705Z,5.10
2022-09-30T04:24:15.176Z,7.57
2022-09-30T04:26:36.720Z,7.83
2022-09-30T04:28:58.804Z,4.83
2022-09-30T04:31:21.410Z,4.53
2022-09-30T04:33:44.718Z,7.77
2022-09-30T04:36:07.105Z,6.27
2022-09-30T04:38:29.190Z,8.60
2022-09-30T04:40:51.689Z,8.57
2022-09-30T04:43:13.271Z,4.30
2022-09-30T04:45:34.766Z,3.97
2022-09-30T04:47:56.426Z,4.83
2022-09-30T04:50:18.192Z,3.63
2022-09-30T04:52:43.627Z,5.17
2022-09-30T04:55:05.671Z,3.80
2022-09-30T04:57:27.283Z,3.83
2022-09-30T04:59:50.024Z,3.83
2022-09-30T05:02:12.877Z,8.07
2022-09-30T05:04:34.408Z,5.63
2022-09-30T05:06:55.913Z,3.80
2022-09-30T05:09:17.424Z,3.50
2022-09-30T05:11:41.596Z,5.10
2022-09-30T05:14:08.801Z,4.30
2022-09-30T05:16:30.350Z,6.10
2022-09-30T05:18:52.035Z,3.57
2022-09-30T05:21:15.796Z,3.33
2022-09-30T05:23:38.256Z,3.97
2022-09-30T05:26:01.489Z,4.37
2022-09-30T05:28:23.093Z,14.00
2022-09-30T05:30:45.425Z,10.00
2022-09-30T05:33:07.285Z,8.73
2022-09-30T05:35:28.782Z,6.10
2022-09-30T05:37:50.287Z,8.33
2022-09-30T05:40:11.785Z,11.90
2022-09-30T05:42:35.957Z,13.03
2022-09-30T05:44:57.431Z,4.37
2022-09-30T05:47:18.943Z,8.00
2022-09-30T05:49:41.764Z,8.07
2022-09-30T05:52:03.307Z,9.83
2022-09-30T05:54:24.822Z,8.77
2022-09-30T05:56:46.305Z,11.33
2022-09-30T05:59:07.894Z,10.33
2022-09-30T06:01:29.479Z,5.73
2022-09-30T06:03:50.958Z,5.13
2022-09-30T06:06:13.375Z,10.20
2022-09-30T06:08:35.061Z,10.17
2022-09-30T06:10:58.767Z,7.20
2022-09-30T06:13:21.502Z,5.53
2022-09-30T06:15:44.044Z,6.57
2022-09-30T06:18:05.754Z,7.63
2022-09-30T06:20:27.331Z,7.17
2022-09-30T06:22:48.862Z,7.53
2022-09-30T06:25:10.866Z,6.63
2022-09-30T06:27:35.636Z,4.07
2022-09-30T06:29:57.945Z,7.47
2022-09-30T06:32:19.680Z,8.20
2022-09-30T06:34:41.139Z,8.87
2022-09-30T06:37:02.882Z,7.30
2022-09-30T06:39:24.444Z,7.33
2022-09-30T06:41:46.810Z,6.03
2022-09-30T06:44:09.472Z,7.13
2022-09-30T06:46:31.642Z,4.73
2022-09-30T06:49:06.562Z,5.37
2022-09-30T06:51:33.339Z,4.40
2022-09-30T06:53:56.248Z,4.57
2022-09-30T06:56:18.346Z,5.73
2022-09-30T06:58:40.433Z,5.33
2022-09-30T07:01:05.370Z,6.10
2022-09-30T07:03:30.380Z,5.40
2022-09-30T07:06:10.214Z,8.40
2022-09-30T07:08:34.323Z,7.00
2022-09-30T07:10:56.171Z,8.47
2022-09-30T07:13:17.649Z,10.07
2022-09-30T07:15:42.132Z,9.90
2022-09-30T07:18:03.692Z,12.47
2022-09-30T07:20:25.544Z,29.60
2022-09-30T07:22:47.628Z,32.63
2022-09-30T07:25:11.320Z,31.10
2022-09-30T07:27:33.948Z,27.80
2022-09-30T07:30:16.301Z,24.50
2022-09-30T07:32:38.129Z,20.53
2022-09-30T07:34:59.645Z,10.47
2022-09-30T07:37:21.732Z,9.23
2022-09-30T07:39:45.411Z,6.37
2022-09-30T07:42:06.903Z,5.77
2022-09-30T07:44:29.356Z,7.07
2022-09-30T07:46:50.813Z,8.37
2022-09-30T07:49:15.281Z,8.80
2022-09-30T07:51:39.824Z,5.97
2022-09-30T07:54:05.972Z,8.30
2022-09-30T07:56:41.031Z,12.67
2022-09-30T07:59:12.387Z,9.50
2022-09-30T08:01:34.427Z,5.30
2022-09-30T08:03:58.712Z,4.77
2022-09-30T08:06:21.029Z,5.30
2022-09-30T08:08:44.240Z,5.83
2022-09-30T08:11:07.579Z,5.30
2022-09-30T08:13:29.119Z,6.53
2022-09-30T08:15:50.628Z,8.23
2022-09-30T08:18:12.114Z,6.90
2022-09-30T08:20:33.611Z,7.40
2022-09-30T08:22:55.617Z,5.83
2022-09-30T08:25:17.174Z,9.67
2022-09-30T08:27:38.949Z,7.63
2022-09-30T08:30:04.213Z,5.50
2022-09-30T08:32:30.668Z,5.80
2022-09-30T08:34:52.107Z,6.00
2022-09-30T08:37:13.597Z,6.33
2022-09-30T08:39:35.099Z,5.93
2022-09-30T08:42:45.745Z,6.17
2022-09-30T08:45:41.024Z,7.13
2022-09-30T08:48:20.699Z,5.43
2022-09-30T08:51:09.902Z,4.93
2022-09-30T08:53:36.306Z,7.00
2022-09-30T08:56:02.489Z,5.50
2022-09-30T08:58:37.183Z,5.93
2022-09-30T09:01:10.248Z,4.90
2022-09-30T09:03:34.161Z,7.00
2022-09-30T09:06:01.607Z,5.23
2022-09-30T09:08:52.400Z,8.17
2022-09-30T09:11:32.615Z,5.97
2022-09-30T09:14:04.425Z,6.63
2022-09-30T09:16:36.267Z,6.63
2022-09-30T09:19:08.461Z,7.53
2022-09-30T09:21:54.906Z,7.47
2022-09-30T09:24:21.181Z,5.50
2022-09-30T09:26:42.671Z,5.60
2022-09-30T09:29:55.772Z,7.90
2022-09-30T09:32:18.981Z,7.50
2022-09-30T09:34:43.305Z,7.23
2022-09-30T09:37:17.508Z,6.00
2022-09-30T09:39:51.116Z,5.07
2022-09-30T09:42:27.634Z,4.23
2022-09-30T09:45:18.132Z,5.43
2022-09-30T09:47:39.774Z,3.90
2022-09-30T09:50:04.146Z,4.70
2022-09-30T09:52:56.339Z,5.10
2022-09-30T09:55:22.128Z,5.33
2022-09-30T09:57:43.607Z,3.73
2022-09-30T10:00:29.898Z,3.97
2022-09-30T10:03:19.180Z,5.33
2022-09-30T10:05:40.894Z,4.57
2022-09-30T10:08:30.959Z,4.97
2022-09-30T10:11:01.573Z,6.80
2022-09-30T10:13:24.264Z,3.70
2022-09-30T10:15:46.514Z,5.43
2022-09-30T10:18:17.853Z,3.10
2022-09-30T10:20:39.392Z,2.97
2022-09-30T10:23:20.062Z,2.57
2022-09-30T10:26:14.847Z,3.33
2022-09-30T10:28:48.003Z,5.20
2022-09-30T10:31:22.410Z,3.10
2022-09-30T10:33:47.034Z,2.97
2022-09-30T10:36:13.338Z,3.60
2022-09-30T10:38:37.180Z,4.40
2022-09-30T10:40:59.400Z,7.20
2022-09-30T10:43:27.039Z,2.63
2022-09-30T10:46:01.508Z,6.80
2022-09-30T10:48:35.145Z,4.57
2022-09-30T10:50:57.096Z,3.00
2022-09-30T10:53:25.696Z,4.45
2022-09-30T10:55:47.389Z,3.45
2022-09-30T10:58:27.032Z,2.85
2022-09-30T11:00:52.787Z,4.00
2022-09-30T11:03:18.893Z,3.50
2022-09-30T11:05:43.448Z,4.38
2022-09-30T11:08:14.833Z,4.47
2022-09-30T11:10:45.584Z,4.85
2022-09-30T11:13:17.534Z,3.70
2022-09-30T11:15:48.481Z,2.80
2022-09-30T11:18:23.768Z,4.82
2022-09-30T11:20:51.198Z,4.40
2022-09-30T11:23:19.561Z,3.67
2022-09-30T11:25:53.045Z,3.03
2022-09-30T11:28:20.596Z,3.13
2022-09-30T11:31:04.920Z,4.70
2022-09-30T11:33:50.806Z,3.25
2022-09-30T11:36:27.888Z,6.88
2022-09-30T11:39:27.823Z,3.80
2022-09-30T11:42:01.205Z,3.15
2022-09-30T11:44:36.912Z,2.67
2022-09-30T11:47:35.520Z,2.58
2022-09-30T11:50:06.895Z,3.22
2022-09-30T11:52:56.472Z,3.15
2022-09-30T11:55:23.802Z,4.15
2022-09-30T11:57:56.458Z,3.65
2022-09-30T12:00:19.504Z,4.05
2022-09-30T12:02:48.021Z,3.50
2022-09-30T12:05:20.207Z,2.10
2022-09-30T12:08:00.676Z,1.83
2022-09-30T12:10:37.446Z,3.50
2022-09-30T12:13:08.884Z,7.40
2022-09-30T12:15:31.497Z,4.45
2022-09-30T12:17:59.352Z,2.58
2022-09-30T12:20:32.923Z,2.30
2022-09-30T12:23:01.268Z,2.90
2022-09-30T12:25:31.257Z,3.95
2022-09-30T12:28:28.538Z,4.80
2022-09-30T12:31:02.033Z,2.53
2022-09-30T12:33:58.112Z,4.15
2022-09-30T12:36:43.392Z,4.35
2022-09-30T12:39:26.448Z,2.03
2022-09-30T12:42:12.002Z,2.95
2022-09-30T12:45:05.304Z,5.00
2022-09-30T12:47:46.637Z,2.00
2022-09-30T12:50:10.072Z,5.13
2022-09-30T12:52:35.309Z,3.33
2022-09-30T12:55:02.491Z,4.70
2022-09-30T12:57:28.331Z,3.25
2022-09-30T13:00:20.706Z,3.72
2022-09-30T13:02:47.155Z,3.70
2022-09-30T13:05:41.065Z,3.58
2022-09-30T13:08:05.312Z,5.72
2022-09-30T13:10:30.631Z,2.05
2022-09-30T13:13:25.853Z,4.32
2022-09-30T13:15:47.570Z,3.55
2022-09-30T13:18:21.258Z,3.53
2022-09-30T13:20:57.914Z,4.28
2022-09-30T13:23:38.023Z,5.22
2022-09-30T13:25:59.526Z,2.80
2022-09-30T13:28:21.051Z,2.92
2022-09-30T13:30:45.069Z,4.55
2022-09-30T13:33:31.619Z,5.05
2022-09-30T13:35:58.729Z,3.25
2022-09-30T13:38:33.336Z,9.52
2022-09-30T13:41:02.901Z,3.15
2022-09-30T13:43:50.917Z,3.88
2022-09-30T13:46:43.100Z,3.28
2022-09-30T13:49:12.276Z,3.40
2022-09-30T13:51:35.069Z,3.47
2022-09-30T13:54:03.705Z,3.58
2022-09-30T13:56:29.833Z,6.30
2022-09-30T13:59:16.288Z,4.85
2022-09-30T14:02:00.796Z,4.20
2022-09-30T14:04:37.184Z,6.18
2022-09-30T14:07:04.377Z,4.82
2022-09-30T14:09:53.838Z,2.47
2022-09-30T14:12:27.300Z,3.72
2022-09-30T14:15:04.175Z,3.03
2022-09-30T14:17:32.415Z,4.93
2022-09-30T14:20:20.072Z,4.68
2022-09-30T14:22:41.905Z,3.97
2022-09-30T14:25:04.915Z,6.40
2022-09-30T14:27:27.000Z,4.13
2022-09-30T14:30:00.430Z,5.75
2022-09-30T14:32:34.062Z,3.58
2022-09-30T14:34:55.994Z,2.97
2022-09-30T14:37:30.953Z,5.03
2022-09-30T14:39:52.676Z,2.85
2022-09-30T14:42:25.444Z,3.38
2022-09-30T14:44:47.289Z,4.93
2022-09-30T14:47:14.309Z,2.42
2022-09-30T14:49:36.553Z,3.00
2022-09-30T14:52:00.582Z,3.38
2022-09-30T14:54:26.523Z,1.75
2022-09-30T14:56:49.699Z,1.98
2022-09-30T14:59:19.463Z,1.60
2022-09-30T15:01:41.443Z,1.92
2022-09-30T15:04:04.487Z,2.30
2022-09-30T15:06:32.305Z,4.43
2022-09-30T15:09:02.148Z,4.75
2022-09-30T15:11:28.240Z,5.32
2022-09-30T15:13:53.440Z,3.30
2022-09-30T15:16:29.789Z,1.70
2022-09-30T15:18:53.755Z,2.25
2022-09-30T15:21:16.847Z,2.50
2022-09-30T15:23:42.328Z,2.15
2022-09-30T15:26:03.930Z,1.63
2022-09-30T15:28:25.921Z,2.15
2022-09-30T15:30:47.565Z,6.82
2022-09-30T15:33:17.925Z,1.75
2022-09-30T15:35:39.419Z,5.10
2022-09-30T15:38:18.438Z,1.73
2022-09-30T15:40:49.982Z,3.25
2022-09-30T15:43:16.464Z,3.63
2022-09-30T15:45:44.002Z,2.92
2022-09-30T15:48:08.064Z,2.80
2022-09-30T15:50:41.394Z,1.30
2022-09-30T15:53:15.463Z,2.63
2022-09-30T15:55:43.097Z,3.20
2022-09-30T15:58:05.609Z,3.85
2022-09-30T16:00:35.275Z,1.92
2022-09-30T16:03:26.086Z,4.57
2022-09-30T16:05:53.780Z,4.95
2022-09-30T16:08:31.659Z,3.15
2022-09-30T16:10:55.759Z,3.03
2022-09-30T16:13:17.348Z,4.68
2022-09-30T16:15:40.556Z,2.97
2022-09-30T16:18:02.210Z,2.30
2022-09-30T16:20:25.439Z,3.42
2022-09-30T16:22:46.872Z,5.38
2022-09-30T16:25:33.564Z,2.80
2022-09-30T16:28:00.847Z,3.08
2022-09-30T16:30:22.371Z,3.47
2022-09-30T16:32:47.563Z,2.70
2022-09-30T16:35:35.566Z,2.17
2022-09-30T16:38:05.631Z,1.98
2022-09-30T16:40:28.892Z,2.13
2022-09-30T16:42:51.443Z,2.10
2022-09-30T16:45:15.026Z,2.10
2022-09-30T16:47:36.511Z,2.53
2022-09-30T16:49:58.855Z,1.60
2022-09-30T16:52:20.337Z,3.97
2022-09-30T16:54:42.799Z,3.43
2022-09-30T16:57:04.556Z,4.27
2022-09-30T16:59:26.060Z,4.07
2022-09-30T17:01:47.571Z,2.13
2022-09-30T17:04:12.968Z,1.90
2022-09-30T17:06:37.235Z,4.33
2022-09-30T17:09:02.005Z,1.40
2022-09-30T17:11:29.540Z,3.17
2022-09-30T17:13:51.012Z,3.93
2022-09-30T17:16:12.965Z,3.07
2022-09-30T17:18:34.460Z,1.73
2022-09-30T17:20:56.546Z,5.53
2022-09-30T17:23:20.460Z,3.80
2022-09-30T17:25:42.872Z,3.77
2022-09-30T17:28:06.007Z,5.17
2022-09-30T17:30:27.532Z,23.07
2022-09-30T17:32:49.081Z,11.53
2022-09-30T17:35:11.257Z,13.47
2022-09-30T17:37:32.864Z,5.33
2022-09-30T17:39:54.394Z,8.17
2022-09-30T17:42:35.303Z,6.27
2022-09-30T17:44:57.461Z,4.80
2022-09-30T17:47:18.968Z,6.60
2022-09-30T17:49:40.457Z,5.93
2022-09-30T17:52:02.370Z,7.20
2022-09-30T17:54:23.960Z,7.53
2022-09-30T17:56:45.434Z,6.97
2022-09-30T17:59:06.957Z,5.67
2022-09-30T18:01:29.860Z,9.07
2022-09-30T18:03:53.483Z,6.83
2022-09-30T18:06:15.009Z,9.03
2022-09-30T18:08:36.680Z,5.57
2022-09-30T18:10:58.207Z,6.10
2022-09-30T18:13:19.831Z,6.63
2022-09-30T18:15:41.618Z,6.67
2022-09-30T18:18:03.137Z,10.27
2022-09-30T18:20:25.641Z,19.80
2022-09-30T18:22:47.358Z,17.40
2022-09-30T18:25:21.288Z,22.00
2022-09-30T18:27:42.845Z,19.87
2022-09-30T18:30:05.835Z,14.40
2022-09-30T18:32:28.619Z,15.93
2022-09-30T18:34:50.159Z,11.50
2022-09-30T18:37:11.674Z,13.13
2022-09-30T18:39:38.082Z,15.60
2022-09-30T18:42:00.496Z,17.73
2022-09-30T18:44:21.962Z,7.33
2022-09-30T18:46:43.455Z,4.73
2022-09-30T18:49:05.717Z,4.00
2022-09-30T18:51:27.240Z,9.53
2022-09-30T18:53:57.820Z,7.37
2022-09-30T18:56:21.743Z,9.23
2022-09-30T18:58:43.311Z,11.13
2022-09-30T19:01:05.818Z,6.23
2022-09-30T19:03:31.061Z,10.33
2022-09-30T19:05:52.582Z,6.20
2022-09-30T19:08:14.153Z,5.77
2022-09-30T19:10:40.148Z,7.43
2022-09-30T19:13:01.636Z,5.40
2022-09-30T19:15:23.606Z,9.93
2022-09-30T19:17:45.443Z,6.90
2022-09-30T19:20:07.636Z,4.23
2022-09-30T19:22:29.726Z,6.53
2022-09-30T19:24:51.165Z,5.67
2022-09-30T19:27:12.944Z,5.87
2022-09-30T19:29:34.414Z,6.47
2022-09-30T19:31:57.473Z,6.17
2022-09-30T19:34:29.862Z,4.77
2022-09-30T19:36:56.315Z,6.70
2022-09-30T19:39:18.057Z,7.27
2022-09-30T19:41:39.900Z,6.00
2022-09-30T19:44:02.019Z,4.97
2022-09-30T19:46:25.022Z,9.47
2022-09-30T19:48:46.525Z,20.87
2022-09-30T19:51:11.494Z,7.17
2022-09-30T19:53:41.644Z,14.43
2022-09-30T19:56:07.252Z,13.43
2022-09-30T19:58:33.673Z,8.63
2022-09-30T20:00:57.833Z,6.37
2022-09-30T20:03:19.285Z,9.33
2022-09-30T20:05:43.973Z,5.83
2022-09-30T20:08:05.473Z,7.47
2022-09-30T20:10:26.963Z,9.97
2022-09-30T20:12:48.448Z,25.33
2022-09-30T20:15:29.018Z,54.60
2022-09-30T20:17:50.497Z,28.60
2022-09-30T20:20:30.299Z,21.33
2022-09-30T20:22:52.558Z,39.50
2022-09-30T20:25:14.060Z,33.47
2022-09-30T20:27:35.534Z,10.83
2022-09-30T20:29:56.992Z,18.73
2022-09-30T20:32:18.507Z,7.33
2022-09-30T20:34:41.925Z,8.03
2022-09-30T20:37:03.404Z,7.53
2022-09-30T20:39:24.896Z,8.93
2022-09-30T20:41:47.246Z,8.47
2022-09-30T20:44:12.042Z,10.70
2022-09-30T20:46:34.498Z,5.97
2022-09-30T20:48:55.978Z,7.07
2022-09-30T20:51:19.644Z,9.67
2022-09-30T20:53:44.491Z,10.60
2022-09-30T20:56:12.040Z,11.37
2022-09-30T20:58:34.222Z,11.70
2022-09-30T21:01:14.104Z,15.53
2022-09-30T21:03:37.645Z,14.43
2022-09-30T21:05:59.486Z,12.97
2022-09-30T21:08:20.965Z,8.80
2022-09-30T21:10:42.531Z,8.00
2022-09-30T21:13:08.911Z,7.37
2022-09-30T21:15:31.284Z,6.13
2022-09-30T21:17:54.811Z,5.83
2022-09-30T21:20:16.260Z,6.20
2022-09-30T21:22:38.700Z,5.13
2022-09-30T21:25:00.204Z,5.83
2022-09-30T21:27:22.328Z,6.23
2022-09-30T21:29:43.886Z,7.33
2022-09-30T21:32:05.531Z,5.83
2022-09-30T21:34:27.151Z,7.00
2022-09-30T21:36:49.266Z,5.07
2022-09-30T21:39:11.548Z,4.53
2022-09-30T21:41:34.646Z,5.27
2022-09-30T21:43:56.380Z,6.07
2022-09-30T21:46:18.668Z,6.93
2022-09-30T21:48:40.811Z,7.43
2022-09-30T21:51:04.363Z,7.93
2022-09-30T21:53:27.361Z,5.07
2022-09-30T21:55:49.247Z,4.53
2022-09-30T21:58:10.695Z,6.83
2022-09-30T22:00:32.226Z,7.80
2022-09-30T22:02:53.704Z,5.43
2022-09-30T22:05:20.502Z,4.93
2022-09-30T22:07:42.262Z,4.10
2022-09-30T22:10:04.239Z,4.17
2022-09-30T22:12:25.732Z,6.10
2022-09-30T22:14:47.187Z,5.03
2022-09-30T22:17:10.091Z,7.17
2022-09-30T22:19:31.626Z,6.27
2022-09-30T22:21:53.136Z,4.13
2022-09-30T22:24:14.564Z,3.97
2022-09-30T22:26:37.209Z,8.60
2022-09-30T22:29:01.573Z,21.63
2022-09-30T22:31:26.705Z,20.60
2022-09-30T22:34:08.789Z,9.17
2022-09-30T22:36:49.099Z,4.43
2022-09-30T22:39:11.291Z,3.80
2022-09-30T22:41:33.735Z,5.80
2022-09-30T22:43:55.709Z,7.87
2022-09-30T22:46:17.212Z,8.03
2022-09-30T22:48:38.728Z,5.97
2022-09-30T22:51:00.765Z,7.30
2022-09-30T22:53:22.214Z,7.27
2022-09-30T22:55:43.736Z,6.77
2022-09-30T22:58:05.191Z,5.27
2022-09-30T23:00:26.781Z,6.73
2022-09-30T23:02:52.848Z,7.03
2022-09-30T23:05:15.451Z,5.13
2022-09-30T23:07:36.939Z,6.83
2022-09-30T23:09:58.395Z,7.20
2022-09-30T23:12:20.299Z,6.43
2022-09-30T23:14:41.980Z,9.97
2022-09-30T23:17:03.427Z,6.50
2022-09-30T23:19:24.965Z,8.47
2022-09-30T23:21:46.851Z,8.80
2022-09-30T23:24:08.645Z,7.50
2022-09-30T23:26:31.138Z,5.57
2022-09-30T23:29:13.713Z,4.80
2022-09-30T23:31:35.529Z,5.23
2022-09-30T23:33:59.821Z,6.37
2022-09-30T23:36:29.299Z,5.00
2022-09-30T23:38:50.772Z,14.20
2022-09-30T23:41:13.755Z,4.43
2022-09-30T23:43:35.583Z,8.17
2022-09-30T23:45:57.807Z,6.83
2022-09-30T23:48:19.316Z,8.30
2022-09-30T23:50:41.062Z,9.50
2022-09-30T23:53:02.558Z,10.13
2022-09-30T23:55:27.808Z,7.83
2022-09-30T23:57:49.378Z,7.53
